AirNav   Everest Fuels
 
 901 users online  

8PA5 Echo 8 Communications Facility Heliport
Kittanning, Pennsylvania, USA

GOING TO KITTANNING?


FAA INFORMATION EFFECTIVE 05 DECEMBER 2019

Location

FAA Identifier: 8PA5
Lat/Long: 40-48-52.2300N 079-30-22.1600W
40-48.870500N 079-30.369333W
40.8145083,-79.5061556
(estimated)
Elevation: 1304 ft. / 397 m (estimated)
Variation: 09W (1990)
Time zone: UTC -5 (UTC -4 during Daylight Saving Time)
Zip code: 16201

Heliport Operations

Heliport use: Private use. Permission required prior to landing
Activation date: 10/1991
Control tower: no
ARTCC: CLEVELAND CENTER
FSS: ALTOONA FLIGHT SERVICE STATION
Attendance: CONTINUOUS
Segmented circle: no

Nearby radio navigation aids

VOR radial/distance  VOR name  Freq  Var
CIPr192/20.0CLARION VOR/DME112.9006W
EWCr099/32.0ELLWOOD CITY VOR/DME115.8008W
RECr304/38.1REVLOC VOR/DME110.6009W

Heliport Services

Runway Information

Helipad H1

Dimensions: 34 x 34 ft. / 10 x 10 m
Surface: concrete
Traffic pattern: leftleft

Heliport Ownership and Management from official FAA records

Ownership: Privately-owned
Owner: CROWN COMMUNICATIONS
PENN CENTER WEST III, BLDG 3
PITTSBURGH, PA 15276
Phone 412-788-0906
SUITE 229.
Manager: ROBERT CROWN
PENN CENTER WEST III, BLDG 3
PITTSBURGH, PA 15276
Phone 412-788-0906
SUITE 229.

Heliport Operational Statistics

Aircraft based on the field: 1
Helicopters: 1
    

Additional Remarks

FOR CD CTC CLEVELAND ARTCC AT 440-774-0234.

Instrument Procedures

There are no published instrument procedures at 8PA5.

Some nearby airports with instrument procedures:

6P7 - McVille Airport (6 nm SW)
KBTP - Pittsburgh/Butler Regional Airport (20 nm W)
KIDI - Indiana County Airport (Jimmy Stewart Field) (21 nm SE)
KAXQ - Clarion County Airport (25 nm N)
N35 - Punxsutawney Municipal Airport (28 nm E)
 
Loc | Ops | Rwys | IFR | FBO | Links
Com | Nav | Svcs | Stats | Notes
Area around 8PA5 (Echo 8 Communications Facility Heliport)
 
Road maps at: MapQuest Bing Google
 
Aerial photo
No photo
 
Sectional chart

 
Airport distance calculator
Flying to Echo 8 Communications Facility Heliport? Find the distance to fly.

From to 8PA5

Sunrise and sunset
Times for 12-Dec-2019
 Local
(UTC-5)
 Zulu
(UTC)
Morning civil twilight07:0312:03
Sunrise07:3412:34
Sunset16:4921:49
Evening civil twilight17:2022:20

Current date and time
Zulu (UTC)  13-Dec-2019 00:37:17
Local (UTC-5)  12-Dec-2019 19:37:17
 
METAR
KBTP 
20nm W 
122356Z AUTO 08006KT 10SM CLR M03/M07 A3040 RMK AO2 SLP322 6//// T10281072 10011 21033 58020 FZRANO
KIDI 
23nm SE 
130015Z AUTO VRB05G11KT 10SM CLR M00/M08 A3046 RMK A01
KPJC 
30nm W 
130015Z AUTO 12005KT 10SM CLR M01/M06 A3039 RMK AO2
KLBE 
33nm S 
122351Z 15007KT 10SM SKC 01/M09 A3044
KAGC 
34nm SW 
122353Z 12005KT 10SM CLR 00/M07 A3039 RMK AO2 SLP312 T00001072 10022 20000 58016
KDUJ 
35nm NE 
122353Z AUTO 11008KT 10SM CLR M03/M10 A3041 RMK AO2 SLP329 T10331100 11006 21033 58003
KFKL 
37nm NW 
122356Z AUTO 13009KT 10SM CLR M02/M08 A3038 RMK AO2 SLP316 T10221083 10000 21033 58023 FZRANO
KP53 
39nm S 
122356Z AUTO 03005KT M06/M08 A3005 RMK AO1 SLP190 P0002 60027 T10561078 11056 21089 56010
KPIT 
39nm SW 
122351Z 08005KT 10SM BKN220 M01/M07 A3038 RMK AO2 SLP314 T10061072 10022 21017 58015
KBVI 
41nm W 
130016Z AUTO 12006KT 10SM CLR 00/M06 A3037 RMK AO2 T00001065
TAF
KLBE 
33nm S 
121722Z 1218/1318 18005KT P6SM BKN250 FM131600 14005KT P6SM VCSH BKN040
KAGC 
34nm SW 
121722Z 1218/1318 16005KT P6SM BKN250 FM131600 00000KT P6SM VCSH BKN050
KDUJ 
35nm NE 
121722Z 1218/1318 16006KT P6SM BKN250 FM131500 14006KT P6SM SCT120
KFKL 
37nm NW 
121722Z 1218/1318 17007KT P6SM BKN250 FM131500 15006KT P6SM SCT120
KPIT 
39nm SW 
122134Z 1222/1324 16007KT P6SM OVC250 FM131800 14003KT P6SM VCSH OVC020
KBVI 
41nm W 
121722Z 1218/1318 16006KT P6SM BKN250 FM131600 14003KT P6SM BKN040
NOTAMs
Click for the latest NOTAMs
NOTAMs are issued by the DoD/FAA and will open in a separate window not controlled by AirNav.

 

 
 

Would you like to see your business listed on this page?

 If your business provides an interesting product or service to pilots, flight crews, aircraft, or users of the Echo 8 Communications Facility Heliport, you should consider listing it here.  To start the listing process, click on the button below
 
Add a business
 

Other Pages about Echo 8 Communications Facility Heliport

Update a link
 
Copyright © AirNav, LLC. All rights reserved. Privacy Policy  Contact